createdAt,value
2017-12-27T00:01:05.582Z,2.00
2017-12-27T00:03:38.873Z,1.90
2017-12-27T00:09:11.042Z,1.60
2017-12-27T00:11:44.540Z,1.70
2017-12-27T00:14:17.920Z,1.30
2017-12-27T00:16:51.921Z,1.50
2017-12-27T00:19:26.021Z,2.20
2017-12-27T00:21:59.299Z,2.07
2017-12-27T00:24:32.605Z,2.60
2017-12-27T00:27:05.988Z,1.50
2017-12-27T00:29:39.384Z,1.87
2017-12-27T00:32:12.578Z,1.80
2017-12-27T00:34:40.171Z,1.43
2017-12-27T00:37:08.562Z,1.80
2017-12-27T00:39:36.177Z,1.40
2017-12-27T00:42:03.816Z,1.30
2017-12-27T00:44:31.413Z,1.33
2017-12-27T00:46:59.045Z,1.77
2017-12-27T00:49:26.653Z,1.40
2017-12-27T00:51:55.049Z,1.70
2017-12-27T00:54:22.671Z,1.23
2017-12-27T00:56:50.306Z,1.00
2017-12-27T00:59:17.908Z,1.77
2017-12-27T01:01:46.272Z,1.33
2017-12-27T01:04:13.890Z,1.40
2017-12-27T01:06:41.504Z,1.20
2017-12-27T01:09:09.133Z,1.20
2017-12-27T01:11:36.720Z,1.50
2017-12-27T01:14:04.370Z,1.20
2017-12-27T01:16:32.735Z,1.43
2017-12-27T01:19:00.317Z,1.40
2017-12-27T01:21:28.709Z,1.40
2017-12-27T01:23:57.066Z,1.20
2017-12-27T01:26:24.717Z,1.20
2017-12-27T01:28:52.376Z,1.50
2017-12-27T01:31:19.984Z,1.23
2017-12-27T01:33:48.413Z,1.70
2017-12-27T01:36:16.051Z,1.20
2017-12-27T01:38:43.680Z,1.00
2017-12-27T01:41:12.041Z,1.00
2017-12-27T01:43:39.665Z,1.20
2017-12-27T01:46:07.292Z,1.33
2017-12-27T01:48:34.881Z,1.27
2017-12-27T01:51:02.516Z,1.40
2017-12-27T01:53:30.117Z,1.17
2017-12-27T01:55:57.733Z,1.43
2017-12-27T01:58:26.085Z,1.20
2017-12-27T02:00:53.714Z,1.50
2017-12-27T02:03:21.313Z,1.20
2017-12-27T02:05:49.680Z,1.00
2017-12-27T02:08:17.320Z,1.17
2017-12-27T02:10:44.915Z,1.53
2017-12-27T02:13:12.545Z,1.20
2017-12-27T02:15:40.189Z,1.10
2017-12-27T02:18:07.793Z,1.10
2017-12-27T02:20:35.437Z,1.13
2017-12-27T02:23:03.048Z,1.20
2017-12-27T02:25:30.676Z,1.00
2017-12-27T02:27:59.065Z,1.13
2017-12-27T02:30:27.458Z,1.10
2017-12-27T02:32:55.068Z,1.27
2017-12-27T02:35:22.661Z,1.27
2017-12-27T02:37:51.058Z,1.00
2017-12-27T02:40:25.337Z,1.23
2017-12-27T02:42:53.030Z,1.20
2017-12-27T02:45:21.392Z,1.30
2017-12-27T02:47:48.986Z,1.17
2017-12-27T02:50:16.667Z,1.50
2017-12-27T02:52:44.264Z,1.83
2017-12-27T02:55:11.879Z,1.90
2017-12-27T02:57:39.502Z,1.43
2017-12-27T03:00:07.907Z,1.07
2017-12-27T03:02:35.611Z,1.33
2017-12-27T03:05:03.209Z,1.13
2017-12-27T03:07:31.617Z,1.07
2017-12-27T03:09:59.205Z,1.37
2017-12-27T03:12:26.823Z,1.50
2017-12-27T03:14:55.183Z,1.10
2017-12-27T03:17:22.813Z,1.10
2017-12-27T03:19:50.420Z,1.37
2017-12-27T03:22:18.839Z,1.20
2017-12-27T03:24:46.480Z,1.20
2017-12-27T03:27:14.067Z,1.10
2017-12-27T03:29:41.789Z,1.00
2017-12-27T03:32:10.157Z,1.20
2017-12-27T03:34:38.513Z,1.17
2017-12-27T03:37:07.784Z,1.40
2017-12-27T03:39:35.392Z,1.40
2017-12-27T03:42:03.813Z,1.47
2017-12-27T03:44:31.436Z,0.87
2017-12-27T03:46:59.831Z,1.23
2017-12-27T03:49:27.461Z,1.30
2017-12-27T03:51:55.065Z,1.50
2017-12-27T03:54:22.679Z,1.50
2017-12-27T03:56:51.776Z,1.17
2017-12-27T03:59:19.432Z,1.10
2017-12-27T04:01:47.025Z,1.13
2017-12-27T04:04:15.376Z,1.70
2017-12-27T04:06:42.988Z,1.00
2017-12-27T04:09:10.583Z,1.70
2017-12-27T04:11:38.208Z,0.80
2017-12-27T04:14:05.810Z,0.90
2017-12-27T04:16:33.392Z,1.10
2017-12-27T04:19:01.800Z,1.43
2017-12-27T04:21:29.400Z,1.17
2017-12-27T04:23:57.027Z,1.60
2017-12-27T04:26:24.629Z,1.33
2017-12-27T04:28:52.256Z,2.07
2017-12-27T04:31:19.881Z,1.20
2017-12-27T04:33:48.260Z,1.30
2017-12-27T04:36:16.644Z,1.10
2017-12-27T04:38:45.021Z,1.03
2017-12-27T04:41:13.408Z,1.20
2017-12-27T04:43:41.026Z,1.10
2017-12-27T04:46:10.128Z,1.53
2017-12-27T04:48:37.735Z,0.97
2017-12-27T04:51:05.320Z,1.00
2017-12-27T04:53:32.985Z,1.80
2017-12-27T04:56:00.576Z,1.20
2017-12-27T04:58:28.929Z,1.30
2017-12-27T05:00:56.563Z,1.20
2017-12-27T05:03:24.152Z,1.27
2017-12-27T05:05:51.793Z,1.13
2017-12-27T05:08:20.187Z,1.17
2017-12-27T05:10:47.787Z,1.00
2017-12-27T05:13:16.213Z,1.10
2017-12-27T05:15:43.841Z,1.10
2017-12-27T05:18:12.256Z,1.43
2017-12-27T05:20:39.880Z,1.60
2017-12-27T05:23:08.308Z,1.13
2017-12-27T05:25:35.905Z,1.10
2017-12-27T05:28:04.293Z,1.30
2017-12-27T05:30:32.683Z,1.50
2017-12-27T05:33:00.322Z,1.63
2017-12-27T05:35:28.684Z,1.53
2017-12-27T05:37:56.301Z,1.43
2017-12-27T05:40:23.897Z,1.00
2017-12-27T05:42:51.516Z,1.03
2017-12-27T05:45:19.131Z,1.27
2017-12-27T05:47:46.748Z,1.03
2017-12-27T05:50:14.338Z,1.40
2017-12-27T05:52:42.269Z,1.37
2017-12-27T05:55:09.870Z,1.30
2017-12-27T05:57:37.467Z,1.10
2017-12-27T06:00:05.857Z,1.33
2017-12-27T06:02:33.462Z,1.33
2017-12-27T06:05:01.425Z,1.13
2017-12-27T06:07:29.016Z,1.10
2017-12-27T06:09:57.466Z,1.00
2017-12-27T06:12:25.052Z,1.00
2017-12-27T06:14:52.676Z,1.60
2017-12-27T06:17:20.273Z,1.27
2017-12-27T06:19:47.906Z,1.87
2017-12-27T06:22:15.510Z,1.37
2017-12-27T06:24:43.877Z,1.67
2017-12-27T06:27:11.499Z,1.73
2017-12-27T06:29:39.080Z,1.93
2017-12-27T06:32:06.703Z,2.40
2017-12-27T06:34:34.292Z,2.13
2017-12-27T06:37:01.953Z,2.47
2017-12-27T06:39:29.564Z,2.67
2017-12-27T06:41:57.936Z,2.33
2017-12-27T06:44:26.289Z,1.80
2017-12-27T06:46:53.926Z,2.07
2017-12-27T06:49:21.546Z,2.33
2017-12-27T06:51:49.901Z,2.47
2017-12-27T06:54:17.529Z,1.70
2017-12-27T06:56:45.120Z,2.17
2017-12-27T06:59:12.754Z,2.07
2017-12-27T07:01:40.344Z,0.90
2017-12-27T07:04:07.972Z,1.80
2017-12-27T07:06:35.588Z,1.53
2017-12-27T07:09:03.991Z,1.43
2017-12-27T07:11:31.604Z,2.07
2017-12-27T07:13:59.193Z,1.20
2017-12-27T07:16:26.893Z,1.33
2017-12-27T07:18:54.492Z,1.43
2017-12-27T07:21:22.914Z,1.37
2017-12-27T07:23:50.502Z,1.20
2017-12-27T07:26:18.132Z,1.30
2017-12-27T07:28:45.733Z,1.60
2017-12-27T07:31:13.341Z,0.90
2017-12-27T07:33:40.948Z,1.10
2017-12-27T07:36:08.544Z,1.40
2017-12-27T07:38:36.940Z,1.33
2017-12-27T07:41:04.545Z,1.70
2017-12-27T07:43:32.188Z,1.30
2017-12-27T07:45:59.771Z,0.70
2017-12-27T07:48:27.432Z,1.17
2017-12-27T07:50:55.044Z,1.40
2017-12-27T07:53:22.632Z,1.27
2017-12-27T07:55:50.259Z,1.70
2017-12-27T07:58:18.624Z,1.33
2017-12-27T08:00:47.029Z,1.50
2017-12-27T08:03:14.692Z,0.83
2017-12-27T08:05:42.299Z,1.43
2017-12-27T08:08:09.937Z,1.03
2017-12-27T08:10:37.700Z,1.60
2017-12-27T08:13:05.378Z,1.33
2017-12-27T08:15:32.965Z,1.60
2017-12-27T08:18:00.632Z,1.43
2017-12-27T08:20:29.017Z,1.10
2017-12-27T08:22:59.712Z,1.07
2017-12-27T08:25:27.539Z,1.27
2017-12-27T08:27:55.132Z,1.30
2017-12-27T08:30:22.905Z,1.27
2017-12-27T08:32:50.532Z,1.20
2017-12-27T08:35:18.173Z,1.67
2017-12-27T08:37:46.528Z,1.20
2017-12-27T08:40:14.160Z,1.50
2017-12-27T08:42:41.743Z,1.30
2017-12-27T08:45:09.372Z,1.20
2017-12-27T08:47:37.055Z,1.43
2017-12-27T08:50:04.796Z,2.30
2017-12-27T08:52:32.399Z,1.20
2017-12-27T08:55:00.031Z,1.40
2017-12-27T08:57:27.629Z,2.00
2017-12-27T08:59:55.984Z,1.10
2017-12-27T09:02:23.613Z,1.27
2017-12-27T09:04:51.391Z,0.93
2017-12-27T09:07:19.149Z,1.43
2017-12-27T09:09:46.744Z,1.50
2017-12-27T09:12:19.301Z,1.23
2017-12-27T09:14:46.949Z,1.80
2017-12-27T09:17:16.007Z,1.20
2017-12-27T09:19:43.592Z,1.57
2017-12-27T09:22:11.232Z,1.73
2017-12-27T09:24:38.854Z,1.60
2017-12-27T09:27:06.461Z,1.20
2017-12-27T09:29:34.089Z,1.60
2017-12-27T09:32:02.479Z,1.50
2017-12-27T09:34:30.904Z,1.40
2017-12-27T09:39:32.485Z,1.63
2017-12-27T09:42:00.087Z,1.30
2017-12-27T09:44:28.485Z,1.40
2017-12-27T09:46:56.350Z,2.00
2017-12-27T09:49:23.989Z,1.37
2017-12-27T09:51:52.362Z,1.60
2017-12-27T09:54:20.004Z,1.80
2017-12-27T09:56:47.596Z,1.87
2017-12-27T09:59:15.948Z,1.60
2017-12-27T10:01:43.559Z,1.80
2017-12-27T10:04:11.160Z,1.43
2017-12-27T10:06:38.855Z,2.00
2017-12-27T10:09:07.233Z,1.60
2017-12-27T10:11:35.588Z,1.50
2017-12-27T10:14:03.976Z,1.70
2017-12-27T10:16:31.588Z,1.73
2017-12-27T10:18:59.204Z,2.30
2017-12-27T10:21:27.649Z,1.20
2017-12-27T10:23:55.416Z,2.13
2017-12-27T10:26:24.541Z,1.53
2017-12-27T10:28:52.182Z,1.73
2017-12-27T10:31:19.776Z,1.90
2017-12-27T10:33:48.204Z,1.77
2017-12-27T10:36:15.785Z,1.30
2017-12-27T10:38:43.372Z,1.83
2017-12-27T10:41:11.752Z,2.07
2017-12-27T10:43:40.180Z,2.20
2017-12-27T10:46:07.811Z,2.07
2017-12-27T10:48:35.398Z,1.30
2017-12-27T10:51:03.060Z,2.20
2017-12-27T10:53:30.756Z,2.07
2017-12-27T10:55:59.170Z,1.60
2017-12-27T10:58:26.812Z,1.70
2017-12-27T11:00:55.180Z,1.27
2017-12-27T11:03:23.584Z,1.50
2017-12-27T11:05:51.390Z,2.17
2017-12-27T11:08:19.008Z,1.90
2017-12-27T11:10:46.734Z,1.60
2017-12-27T11:13:14.506Z,2.07
2017-12-27T11:15:42.128Z,1.30
2017-12-27T11:18:09.724Z,1.63
2017-12-27T11:20:37.369Z,1.53
2017-12-27T11:23:04.961Z,2.20
2017-12-27T11:25:32.591Z,2.20
2017-12-27T11:28:00.180Z,1.37
2017-12-27T11:30:27.808Z,1.20
2017-12-27T11:32:55.408Z,1.80
2017-12-27T11:35:23.774Z,1.73
2017-12-27T11:37:52.224Z,1.30
2017-12-27T11:40:19.829Z,1.50
2017-12-27T11:42:48.225Z,2.27
2017-12-27T11:45:16.590Z,1.43
2017-12-27T11:47:44.981Z,1.70
2017-12-27T11:50:12.576Z,1.60
2017-12-27T11:52:40.216Z,1.90
2017-12-27T11:55:07.808Z,1.40
2017-12-27T11:57:35.571Z,2.03
2017-12-27T12:00:03.216Z,1.90
2017-12-27T12:02:30.825Z,1.57
2017-12-27T12:04:58.448Z,1.03
2017-12-27T12:07:26.077Z,2.20
2017-12-27T12:09:53.783Z,1.97
2017-12-27T12:12:21.378Z,1.60
2017-12-27T12:14:49.766Z,1.70
2017-12-27T12:17:18.145Z,2.30
2017-12-27T12:19:46.538Z,2.03
2017-12-27T12:22:14.144Z,1.93
2017-12-27T12:24:41.747Z,1.70
2017-12-27T12:27:10.127Z,1.60
2017-12-27T12:29:38.495Z,1.93
2017-12-27T12:32:06.882Z,1.80
2017-12-27T12:34:35.240Z,2.13
2017-12-27T12:37:02.872Z,2.03
2017-12-27T12:39:30.532Z,1.90
2017-12-27T12:41:58.196Z,1.93
2017-12-27T12:44:25.880Z,2.20
2017-12-27T12:46:53.513Z,1.67
2017-12-27T12:49:21.177Z,1.80
2017-12-27T12:51:48.866Z,2.50
2017-12-27T12:54:17.258Z,2.03
2017-12-27T12:56:45.626Z,1.87
2017-12-27T12:59:13.255Z,1.97
2017-12-27T13:01:40.947Z,1.80
2017-12-27T13:04:08.622Z,1.67
2017-12-27T13:06:36.981Z,1.23
2017-12-27T13:09:04.604Z,2.27
2017-12-27T13:11:32.193Z,1.30
2017-12-27T13:13:59.852Z,1.63
2017-12-27T13:16:27.505Z,1.93
2017-12-27T13:18:55.102Z,1.50
2017-12-27T13:21:22.758Z,2.10
2017-12-27T13:23:50.371Z,1.50
2017-12-27T13:26:18.000Z,1.27
2017-12-27T13:28:46.363Z,1.80
2017-12-27T13:31:15.509Z,1.70
2017-12-27T13:33:43.096Z,2.00
2017-12-27T13:36:10.688Z,2.00
2017-12-27T13:38:39.245Z,1.90
2017-12-27T13:41:06.837Z,1.73
2017-12-27T13:43:35.232Z,2.40
2017-12-27T13:46:02.850Z,2.50
2017-12-27T13:48:31.273Z,1.60
2017-12-27T13:50:58.868Z,1.47
2017-12-27T13:53:26.476Z,2.37
2017-12-27T13:55:54.894Z,2.57
2017-12-27T13:58:22.508Z,3.03
2017-12-27T14:00:50.877Z,1.90
2017-12-27T14:03:18.612Z,2.33
2017-12-27T14:05:46.205Z,2.17
2017-12-27T14:08:13.832Z,1.93
2017-12-27T14:10:41.425Z,2.10
2017-12-27T14:13:09.056Z,2.00
2017-12-27T14:15:36.665Z,2.07
2017-12-27T14:18:05.065Z,1.90
2017-12-27T14:20:32.655Z,2.70
2017-12-27T14:23:00.240Z,2.10
2017-12-27T14:25:28.660Z,2.23
2017-12-27T14:27:56.260Z,2.20
2017-12-27T14:30:23.888Z,2.73
2017-12-27T14:32:51.480Z,1.90
2017-12-27T14:35:19.060Z,2.03
2017-12-27T14:37:46.700Z,2.13
2017-12-27T14:40:14.302Z,2.10
2017-12-27T14:42:42.759Z,2.20
2017-12-27T14:45:10.370Z,2.30
2017-12-27T14:47:37.984Z,2.80
2017-12-27T14:50:05.618Z,2.10
2017-12-27T14:52:33.213Z,2.40
2017-12-27T14:55:00.845Z,2.37
2017-12-27T14:57:28.433Z,2.33
2017-12-27T14:59:56.819Z,2.40
2017-12-27T15:02:24.410Z,2.27
2017-12-27T15:04:52.097Z,2.23
2017-12-27T15:07:19.709Z,2.80
2017-12-27T15:09:48.111Z,2.63
2017-12-27T15:12:15.721Z,2.07
2017-12-27T15:14:43.349Z,2.80
2017-12-27T15:17:10.934Z,2.50
2017-12-27T15:19:38.558Z,2.67
2017-12-27T15:22:06.149Z,3.00
2017-12-27T15:24:33.762Z,2.80
2017-12-27T15:27:02.156Z,2.83
2017-12-27T15:29:29.741Z,3.03
2017-12-27T15:31:57.372Z,4.33
2017-12-27T15:34:24.984Z,2.87
2017-12-27T15:36:52.595Z,3.90
2017-12-27T15:39:20.214Z,2.73
2017-12-27T15:41:47.844Z,2.73
2017-12-27T15:44:15.470Z,2.17
2017-12-27T15:46:43.828Z,2.37
2017-12-27T15:49:11.469Z,2.00
2017-12-27T15:51:39.053Z,2.60
2017-12-27T15:54:07.441Z,2.37
2017-12-27T15:56:35.837Z,2.50
2017-12-27T15:59:03.443Z,2.87
2017-12-27T16:01:31.089Z,3.23
2017-12-27T16:03:58.696Z,2.33
2017-12-27T16:06:27.072Z,2.40
2017-12-27T16:08:55.465Z,2.80
2017-12-27T16:11:23.864Z,2.40
2017-12-27T16:13:51.454Z,2.10
2017-12-27T16:16:19.119Z,2.50
2017-12-27T16:18:46.704Z,2.63
2017-12-27T16:21:14.331Z,3.70
2017-12-27T16:23:41.967Z,3.07
2017-12-27T16:26:09.564Z,2.60
2017-12-27T16:28:37.192Z,2.63
2017-12-27T16:31:04.777Z,2.73
2017-12-27T16:33:32.412Z,3.00
2017-12-27T16:35:59.998Z,2.43
2017-12-27T16:38:28.384Z,2.93
2017-12-27T16:40:56.008Z,2.40
2017-12-27T16:43:23.602Z,3.60
2017-12-27T16:45:51.230Z,3.77
2017-12-27T16:48:18.820Z,3.20
2017-12-27T16:50:46.440Z,3.27
2017-12-27T16:53:14.146Z,3.50
2017-12-27T16:55:41.773Z,3.43
2017-12-27T16:58:09.402Z,4.00
2017-12-27T17:00:37.833Z,4.67
2017-12-27T17:03:05.464Z,3.30
2017-12-27T17:05:33.828Z,3.97
2017-12-27T17:08:02.241Z,3.47
2017-12-27T17:10:29.837Z,3.30
2017-12-27T17:12:57.451Z,3.73
2017-12-27T17:15:25.061Z,6.10
2017-12-27T17:17:52.691Z,4.40
2017-12-27T17:20:20.287Z,3.67
2017-12-27T17:22:47.952Z,3.77
2017-12-27T17:25:15.599Z,3.83
2017-12-27T17:27:43.221Z,3.80
2017-12-27T17:30:10.845Z,4.53
2017-12-27T17:32:38.600Z,3.70
2017-12-27T17:35:06.254Z,4.60
2017-12-27T17:37:33.848Z,5.30
2017-12-27T17:40:01.484Z,5.70
2017-12-27T17:42:29.081Z,4.77
2017-12-27T17:44:56.710Z,4.73
2017-12-27T17:47:24.305Z,5.33
2017-12-27T17:49:52.037Z,4.70
2017-12-27T17:52:19.669Z,6.73
2017-12-27T17:54:47.271Z,6.30
2017-12-27T17:57:15.679Z,6.20
2017-12-27T17:59:43.341Z,5.30
2017-12-27T18:02:10.956Z,4.23
2017-12-27T18:04:38.549Z,6.20
2017-12-27T18:07:06.163Z,4.97
2017-12-27T18:12:08.056Z,4.87
2017-12-27T18:14:35.670Z,4.90
2017-12-27T18:17:03.289Z,4.60
2017-12-27T18:19:30.929Z,4.30
2017-12-27T18:21:58.538Z,5.40
2017-12-27T18:24:26.946Z,4.60
2017-12-27T18:26:55.226Z,3.43
2017-12-27T18:29:22.951Z,4.70
2017-12-27T18:31:51.379Z,3.37
2017-12-27T18:34:19.018Z,4.93
2017-12-27T18:36:46.707Z,4.60
2017-12-27T18:39:14.375Z,4.57
2017-12-27T18:41:42.822Z,5.33
2017-12-27T18:44:10.434Z,4.50
2017-12-27T18:46:38.099Z,4.77
2017-12-27T18:49:05.841Z,3.70
2017-12-27T18:51:33.477Z,4.20
2017-12-27T18:54:01.186Z,4.20
2017-12-27T18:56:28.877Z,4.93
2017-12-27T18:58:57.288Z,4.33
2017-12-27T19:01:24.971Z,5.33
2017-12-27T19:03:52.735Z,4.60
2017-12-27T19:06:20.365Z,4.00
2017-12-27T19:08:48.164Z,4.47
2017-12-27T19:11:15.823Z,4.50
2017-12-27T19:13:43.469Z,4.57
2017-12-27T19:16:11.079Z,4.60
2017-12-27T19:18:38.751Z,3.50
2017-12-27T19:21:07.123Z,3.97
2017-12-27T19:23:34.853Z,4.63
2017-12-27T19:26:02.489Z,4.10
2017-12-27T19:28:30.177Z,4.27
2017-12-27T19:30:57.782Z,5.90
2017-12-27T19:33:26.219Z,5.37
2017-12-27T19:35:53.856Z,5.93
2017-12-27T19:38:21.470Z,5.93
2017-12-27T19:40:49.130Z,5.00
2017-12-27T19:43:16.748Z,5.90
2017-12-27T19:45:44.585Z,5.03
2017-12-27T19:48:13.027Z,5.70
2017-12-27T19:50:40.671Z,4.90
2017-12-27T19:53:08.321Z,4.77
2017-12-27T19:55:36.014Z,3.93
2017-12-27T19:58:03.764Z,6.40
2017-12-27T20:00:31.391Z,4.77
2017-12-27T20:02:59.088Z,4.20
2017-12-27T20:05:26.750Z,4.70
2017-12-27T20:07:54.396Z,4.50
2017-12-27T20:10:22.280Z,6.87
2017-12-27T20:12:49.928Z,4.70
2017-12-27T20:15:17.728Z,5.87
2017-12-27T20:17:45.387Z,5.43
2017-12-27T20:20:13.041Z,5.80
2017-12-27T20:22:40.657Z,4.87
2017-12-27T20:25:09.176Z,4.93
2017-12-27T20:27:36.839Z,3.27
2017-12-27T20:30:04.483Z,4.73
2017-12-27T20:32:32.100Z,5.80
2017-12-27T20:34:59.754Z,4.00
2017-12-27T20:37:28.875Z,4.50
2017-12-27T20:39:57.401Z,4.47
2017-12-27T20:42:25.170Z,8.30
2017-12-27T20:44:52.932Z,5.93
2017-12-27T20:47:20.548Z,6.43
2017-12-27T20:49:48.989Z,5.37
2017-12-27T20:52:16.609Z,5.37
2017-12-27T20:54:44.238Z,4.70
2017-12-27T20:57:11.918Z,6.27
2017-12-27T20:59:39.546Z,4.10
2017-12-27T21:02:07.188Z,5.50
2017-12-27T21:04:34.953Z,6.97
2017-12-27T21:07:02.727Z,4.90
2017-12-27T21:09:30.360Z,5.50
2017-12-27T21:11:58.054Z,3.97
2017-12-27T21:14:25.704Z,4.40
2017-12-27T21:16:53.356Z,4.10
2017-12-27T21:19:20.977Z,3.43
2017-12-27T21:21:49.356Z,4.43
2017-12-27T21:24:17.759Z,3.80
2017-12-27T21:26:45.395Z,4.57
2017-12-27T21:29:13.825Z,4.13
2017-12-27T21:31:41.455Z,3.73
2017-12-27T21:34:09.490Z,4.67
2017-12-27T21:36:37.450Z,4.60
2017-12-27T21:39:05.453Z,4.47
2017-12-27T21:41:34.052Z,3.80
2017-12-27T21:44:01.662Z,4.53
2017-12-27T21:46:31.098Z,5.63
2017-12-27T21:49:05.473Z,3.93
2017-12-27T21:51:33.389Z,4.23
2017-12-27T21:54:01.756Z,5.13
2017-12-27T21:56:32.471Z,5.17
2017-12-27T21:59:06.615Z,4.27
2017-12-27T22:01:40.815Z,5.37
2017-12-27T22:04:08.442Z,3.93
2017-12-27T22:06:36.639Z,4.33
2017-12-27T22:09:04.316Z,5.00
2017-12-27T22:11:31.939Z,4.73
2017-12-27T22:13:59.600Z,4.40
2017-12-27T22:16:27.229Z,4.20
2017-12-27T22:18:54.951Z,4.87
2017-12-27T22:21:23.640Z,4.40
2017-12-27T22:23:52.098Z,5.73
2017-12-27T22:26:19.788Z,4.57
2017-12-27T22:28:47.411Z,3.97
2017-12-27T22:31:15.166Z,5.67
2017-12-27T22:33:42.770Z,4.70
2017-12-27T22:36:10.437Z,5.23
2017-12-27T22:38:38.414Z,5.70
2017-12-27T22:41:06.047Z,5.10
2017-12-27T22:43:33.808Z,4.63
2017-12-27T22:46:02.555Z,4.80
2017-12-27T22:48:31.008Z,4.83
2017-12-27T22:51:02.087Z,4.47
2017-12-27T22:53:29.739Z,3.90
2017-12-27T22:55:57.390Z,5.00
2017-12-27T22:58:25.767Z,5.10
2017-12-27T23:00:53.490Z,4.67
2017-12-27T23:03:21.098Z,4.10
2017-12-27T23:05:49.517Z,4.60
2017-12-27T23:08:17.125Z,5.00
2017-12-27T23:10:46.292Z,4.57
2017-12-27T23:13:14.113Z,4.10
2017-12-27T23:15:41.810Z,4.57
2017-12-27T23:18:09.448Z,4.37
2017-12-27T23:20:37.222Z,5.50
2017-12-27T23:23:04.873Z,4.70
2017-12-27T23:25:32.478Z,4.47
2017-12-27T23:28:01.070Z,4.40
2017-12-27T23:30:28.691Z,4.57
2017-12-27T23:32:56.308Z,4.20
2017-12-27T23:35:24.750Z,4.23
2017-12-27T23:37:52.380Z,4.00
2017-12-27T23:40:20.024Z,3.93
2017-12-27T23:42:48.489Z,4.90
2017-12-27T23:45:16.119Z,4.20
2017-12-27T23:47:43.767Z,4.30
2017-12-27T23:50:12.557Z,4.30
2017-12-27T23:52:40.225Z,4.40
2017-12-27T23:55:07.850Z,4.87
2017-12-27T23:57:36.238Z,4.73
